Kenton, Oklahoma
Current Conditions -  °F | °C
As of 10:55 AM on Saturday 25 Oct 2014 (Local Time) from KCAO Reporting Station
Clear Clear  
Wind Chill: 77°   Ceiling: Unl
Heat Index: 77°   Visibility: 10mi
Dew Point: 30°   Wind: 6mph
Humidity: 18%   Direction: 90°E
Pressure: 30.22"   Gusts: NA
Location:  36.9°N, 102.96°W
Report Text: KCAO 251555Z AUTO 09005KT 10SM CLR 25/M01 A3022 RMK AO2 SLP173 T02501011
Loading
Personal Weather Stations






























Interactive Weather Map
Tropical Storm Tracking
New forecast layout! Learn more

10-Day Weather Forecast

Advertisements
Track Severe Weather on mobile